Time;durP1;ratioP1;P1;durP2;ratioP2;P2;SDS_P1;SDS_P2;PMS_P1;PMS_P2;Temp;Humidity;BMP_temperature;BMP_pressure;BME280_temperature;BME280_humidity;BME280_pressure;Samples;Min_cycle;Max_cycle;Signal;HPM_P1;HPM_P2
2022/02/08 00:01:08;;;;;;;6.28;1.45;;;;;;;;;;5012079;28;20140;-72
2022/02/08 00:03:36;;;;;;;5.30;1.77;;;;;;;;;;5012142;28;20440;-77
2022/02/08 00:08:40;;;;;;;9.40;1.40;;;;;;;;;;5012465;28;20046;-77
2022/02/08 00:11:11;;;;;;;8.88;1.50;;;;;;;;;;5014030;28;20120;-73
2022/02/08 00:13:39;;;;;;;6.82;1.15;;;;;;;;;;5013073;28;20132;-77
2022/02/08 00:16:06;;;;;;;10.13;1.55;;;;;;;;;;5013491;28;20048;-77
2022/02/08 00:18:34;;;;;;;11.85;1.65;;;;;;;;;;5013671;28;20045;-73
2022/02/08 00:21:01;;;;;;;6.45;1.30;;;;;;;;;;5011767;28;20069;-77
2022/02/08 00:23:29;;;;;;;5.20;1.10;;;;;;;;;;5012242;28;20052;-71
2022/02/08 00:25:56;;;;;;;13.27;2.00;;;;;;;;;;5011553;28;20050;-71
2022/02/08 00:28:24;;;;;;;3.92;1.10;;;;;;;;;;5013418;28;20044;-71
2022/02/08 00:30:51;;;;;;;5.18;1.20;;;;;;;;;;5012216;28;20461;-71
2022/02/08 00:33:19;;;;;;;4.45;1.00;;;;;;;;;;5011293;28;20099;-71
2022/02/08 00:35:46;;;;;;;9.38;1.42;;;;;;;;;;5013189;28;20096;-71
2022/02/08 00:38:14;;;;;;;6.07;1.02;;;;;;;;;;5011114;28;20038;-76
2022/02/08 00:40:43;;;;;;;9.25;1.73;;;;;;;;;;5011514;28;20058;-76
2022/02/08 00:43:11;;;;;;;3.55;1.52;;;;;;;;;;5012727;28;20489;-71
2022/02/08 00:45:52;;;;;;;4.13;1.20;;;;;;;;;;5012595;28;20460;-72
2022/02/08 00:51:08;;;;;;;8.43;1.98;;;;;;;;;;5011014;28;20120;-71
2022/02/08 00:53:36;;;;;;;3.05;1.20;;;;;;;;;;4995061;28;20042;-71
2022/02/08 00:56:04;;;;;;;6.13;1.50;;;;;;;;;;5011462;28;20041;-73
2022/02/08 00:58:32;;;;;;;6.20;1.23;;;;;;;;;;5011701;28;20523;-77
2022/02/08 01:01:00;;;;;;;6.80;1.50;;;;;;;;;;5012977;28;20045;-73
2022/02/08 01:03:29;;;;;;;4.55;1.33;;;;;;;;;;4998860;28;20218;-73
2022/02/08 01:06:05;;;;;;;7.75;1.40;;;;;;;;;;5015461;28;20046;-77
2022/02/08 01:08:35;;;;;;;7.70;1.38;;;;;;;;;;5015221;28;20054;-73
2022/02/08 01:11:04;;;;;;;5.03;1.30;;;;;;;;;;5015434;28;20419;-70
2022/02/08 01:13:31;;;;;;;2.03;0.90;;;;;;;;;;5015366;28;20096;-73
2022/02/08 01:15:59;;;;;;;6.90;1.30;;;;;;;;;;5015221;28;20050;-73
2022/02/08 01:18:30;;;;;;;7.43;1.73;;;;;;;;;;5015046;28;20073;-70
2022/02/08 01:20:57;;;;;;;5.45;1.48;;;;;;;;;;5016491;28;20468;-77
2022/02/08 01:23:25;;;;;;;3.33;1.60;;;;;;;;;;5015167;28;20428;-76
2022/02/08 01:25:57;;;;;;;5.78;1.35;;;;;;;;;;5014604;28;20081;-76
2022/02/08 01:28:49;;;;;;;7.53;1.27;;;;;;;;;;5015181;28;20125;-72
2022/02/08 01:31:19;;;;;;;6.93;1.33;;;;;;;;;;4998832;28;20624;-73
2022/02/08 01:39:32;;;;;;;4.88;0.98;;;;;;;;;;4977973;28;20494;-70
2022/02/08 01:47:45;;;;;;;20.23;2.80;;;;;;;;;;5014691;28;20062;-72
2022/02/08 01:50:16;;;;;;;5.43;1.60;;;;;;;;;;5015645;28;20038;-76
2022/02/08 01:52:47;;;;;;;3.67;1.33;;;;;;;;;;5014461;28;20092;-72
2022/02/08 01:55:24;;;;;;;3.72;1.15;;;;;;;;;;4984166;28;20086;-75
2022/02/08 01:58:14;;;;;;;4.97;1.33;;;;;;;;;;5014485;28;20045;-75
2022/02/08 02:00:42;;;;;;;8.25;1.63;;;;;;;;;;5014792;28;20133;-70
2022/02/08 02:03:10;;;;;;;5.13;1.20;;;;;;;;;;4997880;28;20545;-73
2022/02/08 02:05:38;;;;;;;7.28;1.10;;;;;;;;;;5015894;28;20046;-75
2022/02/08 02:08:08;;;;;;;7.13;1.67;;;;;;;;;;5015404;28;20065;-71
2022/02/08 02:10:40;;;;;;;4.32;1.10;;;;;;;;;;5013736;28;20042;-72
2022/02/08 02:13:14;;;;;;;4.03;1.20;;;;;;;;;;5012081;28;20518;-72
2022/02/08 02:15:47;;;;;;;1.65;1.08;;;;;;;;;;5013706;28;20132;-73
2022/02/08 02:18:14;;;;;;;4.63;1.27;;;;;;;;;;5015180;28;20038;-70
2022/02/08 02:20:43;;;;;;;4.72;1.13;;;;;;;;;;5014040;28;20535;-76
2022/02/08 02:23:10;;;;;;;7.07;1.30;;;;;;;;;;5013969;28;20448;-73
2022/02/08 02:25:38;;;;;;;3.10;1.08;;;;;;;;;;5014057;28;20132;-72
2022/02/08 02:28:06;;;;;;;6.68;1.40;;;;;;;;;;5014020;28;20050;-72
2022/02/08 02:30:34;;;;;;;2.75;1.10;;;;;;;;;;5014818;28;20121;-73
2022/02/08 02:33:07;;;;;;;5.82;1.60;;;;;;;;;;5013688;28;20042;-73
2022/02/08 02:35:35;;;;;;;2.95;1.23;;;;;;;;;;5013596;28;20042;-70
2022/02/08 02:38:05;;;;;;;6.10;1.88;;;;;;;;;;5013465;28;20034;-72
2022/02/08 02:40:40;;;;;;;8.63;1.10;;;;;;;;;;4997851;28;20560;-73
2022/02/08 02:43:09;;;;;;;2.90;0.88;;;;;;;;;;5013599;28;20108;-70
2022/02/08 02:45:39;;;;;;;5.25;1.20;;;;;;;;;;5013290;28;20072;-70
2022/02/08 02:48:07;;;;;;;11.88;1.55;;;;;;;;;;5013648;28;20056;-72
2022/02/08 02:50:49;;;;;;;6.88;1.52;;;;;;;;;;5013000;28;20038;-75
2022/02/08 02:53:17;;;;;;;5.90;1.35;;;;;;;;;;5013236;28;20452;-76
2022/02/08 02:55:45;;;;;;;4.10;1.17;;;;;;;;;;5013260;28;20042;-72
2022/02/08 02:58:14;;;;;;;5.32;1.42;;;;;;;;;;5014289;28;20370;-76
2022/02/08 03:01:03;;;;;;;4.18;1.33;;;;;;;;;;5013524;28;20046;-73
2022/02/08 03:03:47;;;;;;;8.32;1.00;;;;;;;;;;5012508;28;20057;-76
2022/02/08 03:18:29;;;;;;;2.75;0.63;;;;;;;;;;5012970;28;20052;-76
2022/02/08 03:20:28;;;;;;;2.53;1.05;;;;;;;;;;5012664;28;20535;-72
2022/02/08 03:23:03;;;;;;;4.85;1.13;;;;;;;;;;5012853;28;20121;-72
2022/02/08 03:25:31;;;;;;;2.65;1.02;;;;;;;;;;5012547;28;20046;-72
2022/02/08 03:28:07;;;;;;;6.20;1.48;;;;;;;;;;5012478;28;20161;-76
2022/02/08 03:30:37;;;;;;;4.47;0.70;;;;;;;;;;5012643;28;20046;-73
2022/02/08 03:33:08;;;;;;;3.20;1.20;;;;;;;;;;4996685;28;20045;-73
2022/02/08 03:35:39;;;;;;;3.88;0.77;;;;;;;;;;5012556;28;20038;-72
2022/02/08 03:38:10;;;;;;;1.80;0.77;;;;;;;;;;5012123;28;20060;-71
2022/02/08 03:40:46;;;;;;;1.40;0.77;;;;;;;;;;5012732;28;20046;-72
2022/02/08 03:45:51;;;;;;;3.95;1.00;;;;;;;;;;5013590;28;19925;-71
2022/02/08 03:48:23;;;;;;;4.45;0.95;;;;;;;;;;4996420;28;20046;-71
2022/02/08 03:50:57;;;;;;;6.20;0.88;;;;;;;;;;5011743;28;20037;-72
2022/02/08 03:53:25;;;;;;;0.55;0.52;;;;;;;;;;5011909;28;20129;-76
2022/02/08 03:55:55;;;;;;;3.80;0.70;;;;;;;;;;4995955;28;20116;-76
2022/02/08 03:58:23;;;;;;;4.50;0.82;;;;;;;;;;5011821;28;20045;-76
2022/02/08 04:03:24;;;;;;;2.85;0.80;;;;;;;;;;5012850;28;20412;-76
2022/02/08 04:05:57;;;;;;;3.03;0.80;;;;;;;;;;5013889;28;20078;-71
2022/02/08 04:08:28;;;;;;;4.70;1.08;;;;;;;;;;5013468;28;20049;-71
2022/02/08 04:10:58;;;;;;;2.25;1.00;;;;;;;;;;5013527;28;20046;-72
2022/02/08 04:13:35;;;;;;;2.58;0.80;;;;;;;;;;5013312;28;20088;-74
2022/02/08 04:16:22;;;;;;;5.45;1.05;;;;;;;;;;5012059;28;20104;-73
2022/02/08 04:41:11;;;;;;;6.65;1.10;;;;;;;;;;4980757;28;20052;-76
2022/02/08 04:43:54;;;;;;;4.13;0.88;;;;;;;;;;5012008;28;20042;-73
2022/02/08 04:46:44;;;;;;;6.72;1.10;;;;;;;;;;5009379;28;20038;-71
2022/02/08 04:49:11;;;;;;;5.43;1.10;;;;;;;;;;5012398;28;20057;-72
2022/02/08 04:51:44;;;;;;;3.70;0.90;;;;;;;;;;5012212;28;20129;-72
2022/02/08 04:54:43;;;;;;;3.65;1.00;;;;;;;;;;5013160;28;20042;-76
2022/02/08 05:27:04;;;;;;;2.15;0.55;;;;;;;;;;5011890;28;20050;-75
2022/02/08 05:35:31;;;;;;;2.63;0.90;;;;;;;;;;5012971;28;20096;-71
2022/02/08 05:48:47;;;;;;;3.10;1.23;;;;;;;;;;5015108;28;20057;-73
2022/02/08 05:51:21;;;;;;;3.97;0.80;;;;;;;;;;5015432;28;20033;-76
2022/02/08 05:53:49;;;;;;;2.15;0.75;;;;;;;;;;5016101;28;20050;-72
2022/02/08 05:56:17;;;;;;;1.13;0.52;;;;;;;;;;5015674;28;20042;-72
2022/02/08 05:58:46;;;;;;;4.72;1.02;;;;;;;;;;5015672;28;20514;-72
2022/02/08 06:01:15;;;;;;;5.30;1.17;;;;;;;;;;5012131;28;20556;-73
2022/02/08 06:04:03;;;;;;;2.33;0.57;;;;;;;;;;5013235;28;20070;-79
2022/02/08 06:06:32;;;;;;;4.35;0.52;;;;;;;;;;5015043;28;20096;-78
2022/02/08 06:09:01;;;;;;;1.80;0.73;;;;;;;;;;5015208;28;20061;-79
2022/02/08 06:11:28;;;;;;;4.40;0.68;;;;;;;;;;5012658;28;20478;-74
2022/02/08 06:13:58;;;;;;;5.30;0.90;;;;;;;;;;5015066;28;20045;-79
2022/02/08 06:16:27;;;;;;;3.80;0.93;;;;;;;;;;4996857;28;20034;-79
2022/02/08 06:18:55;;;;;;;3.38;1.17;;;;;;;;;;5015075;28;20034;-78
2022/02/08 06:21:22;;;;;;;4.68;1.20;;;;;;;;;;5013992;28;20417;-73
2022/02/08 06:23:51;;;;;;;6.68;1.63;;;;;;;;;;5014836;28;20107;-72
2022/02/08 06:26:22;;;;;;;9.68;1.52;;;;;;;;;;5015278;28;20052;-73
2022/02/08 06:29:05;;;;;;;6.75;1.27;;;;;;;;;;5014255;28;20046;-79
2022/02/08 06:31:33;;;;;;;4.30;1.42;;;;;;;;;;5010569;28;20034;-73
2022/02/08 06:34:01;;;;;;;6.88;1.42;;;;;;;;;;5014466;28;20390;-74
2022/02/08 06:36:30;;;;;;;2.67;1.00;;;;;;;;;;5012906;28;20049;-70
2022/02/08 06:38:58;;;;;;;7.32;1.38;;;;;;;;;;5013589;28;20046;-73
2022/02/08 06:41:25;;;;;;;3.45;1.20;;;;;;;;;;5005466;28;20084;-73
2022/02/08 06:43:53;;;;;;;2.67;0.70;;;;;;;;;;5009681;28;20042;-73
2022/02/08 06:46:21;;;;;;;2.55;0.95;;;;;;;;;;5013874;28;20125;-77
2022/02/08 06:48:49;;;;;;;4.85;0.95;;;;;;;;;;4997404;28;20505;-78
2022/02/08 06:51:17;;;;;;;3.80;0.90;;;;;;;;;;5014126;28;20053;-70
2022/02/08 06:53:45;;;;;;;4.18;0.90;;;;;;;;;;5012233;28;20112;-72
2022/02/08 06:56:13;;;;;;;1.25;0.68;;;;;;;;;;5009640;28;20100;-74
2022/02/08 06:58:57;;;;;;;2.67;1.02;;;;;;;;;;4999149;28;20042;-70
2022/02/08 07:01:32;;;;;;;3.90;1.30;;;;;;;;;;4994040;28;20052;-78
2022/02/08 07:04:07;;;;;;;5.18;1.23;;;;;;;;;;5002136;28;20116;-73
2022/02/08 07:06:34;;;;;;;3.97;1.42;;;;;;;;;;5013170;28;20094;-74
2022/02/08 07:09:03;;;;;;;3.42;1.10;;;;;;;;;;5011556;28;20069;-80
2022/02/08 07:11:31;;;;;;;4.22;0.95;;;;;;;;;;5014027;28;20041;-73
2022/02/08 07:13:59;;;;;;;4.90;0.98;;;;;;;;;;5013016;28;20046;-70
2022/02/08 07:16:27;;;;;;;3.35;0.93;;;;;;;;;;5012248;28;20046;-79
2022/02/08 07:18:55;;;;;;;4.75;0.90;;;;;;;;;;5012185;28;20173;-70
2022/02/08 07:21:22;;;;;;;5.82;1.67;;;;;;;;;;4996161;28;20408;-70
2022/02/08 07:23:51;;;;;;;4.20;1.00;;;;;;;;;;5014055;28;20069;-79
2022/02/08 07:26:19;;;;;;;5.88;1.60;;;;;;;;;;5013748;28;20053;-76
2022/02/08 07:28:47;;;;;;;4.50;1.45;;;;;;;;;;5013666;28;20050;-79
2022/02/08 07:31:22;;;;;;;6.85;2.20;;;;;;;;;;5012920;28;20057;-74
2022/02/08 07:33:58;;;;;;;7.07;1.60;;;;;;;;;;5002281;28;20069;-78
2022/02/08 07:38:58;;;;;;;6.30;1.67;;;;;;;;;;5011652;28;20038;-70
2022/02/08 07:41:40;;;;;;;7.03;1.63;;;;;;;;;;5011483;28;20042;-70
2022/02/08 07:44:09;;;;;;;7.50;1.40;;;;;;;;;;5013666;28;20049;-70
2022/02/08 07:46:44;;;;;;;5.00;1.40;;;;;;;;;;5013998;28;20121;-70
2022/02/08 07:49:14;;;;;;;3.70;1.30;;;;;;;;;;5013699;28;20048;-73
2022/02/08 07:51:43;;;;;;;3.10;1.00;;;;;;;;;;4992208;28;20133;-70
2022/02/08 07:54:13;;;;;;;3.85;1.15;;;;;;;;;;5005802;28;20044;-68
2022/02/08 07:56:40;;;;;;;2.83;0.88;;;;;;;;;;5011588;28;20045;-70
2022/02/08 07:59:08;;;;;;;3.25;0.68;;;;;;;;;;5012751;28;20034;-72
2022/02/08 08:01:36;;;;;;;4.65;0.90;;;;;;;;;;5010164;28;20048;-76
2022/02/08 08:04:05;;;;;;;5.80;1.00;;;;;;;;;;5012289;28;20038;-74
2022/02/08 08:06:34;;;;;;;3.97;0.90;;;;;;;;;;5011373;28;20048;-70
2022/02/08 08:09:04;;;;;;;6.63;1.73;;;;;;;;;;5011416;28;20049;-67
2022/02/08 08:11:41;;;;;;;6.85;1.35;;;;;;;;;;5010992;28;20048;-75
2022/02/08 08:14:11;;;;;;;4.38;1.30;;;;;;;;;;5011622;28;20050;-74
2022/02/08 08:21:35;;;;;;;3.60;1.10;;;;;;;;;;4997614;28;20088;-71
2022/02/08 08:24:06;;;;;;;4.53;1.13;;;;;;;;;;5001270;28;20057;-72
2022/02/08 08:26:34;;;;;;;4.65;1.05;;;;;;;;;;4986415;28;20053;-69
2022/02/08 08:29:02;;;;;;;4.47;1.13;;;;;;;;;;5011421;28;20104;-71
2022/02/08 08:31:30;;;;;;;5.55;1.05;;;;;;;;;;5011119;28;20046;-73
2022/02/08 08:34:07;;;;;;;13.38;4.68;;;;;;;;;;5011308;28;20046;-69
2022/02/08 08:36:35;;;;;;;7.63;1.23;;;;;;;;;;5012884;28;20037;-73
2022/02/08 08:39:05;;;;;;;2.55;0.90;;;;;;;;;;5012390;28;20069;-76
2022/02/08 08:41:40;;;;;;;7.38;0.70;;;;;;;;;;5011259;28;20042;-73
2022/02/08 08:52:11;;;;;;;5.65;0.80;;;;;;;;;;5009706;28;20038;-73
2022/02/08 08:54:39;;;;;;;7.28;1.23;;;;;;;;;;5011867;28;20049;-72
2022/02/08 08:57:06;;;;;;;3.42;1.30;;;;;;;;;;5009229;28;20038;-69
2022/02/08 08:59:34;;;;;;;9.57;1.25;;;;;;;;;;5010414;28;20125;-69
2022/02/08 09:02:02;;;;;;;4.43;1.33;;;;;;;;;;5011501;28;20129;-73
2022/02/08 09:04:34;;;;;;;14.88;2.05;;;;;;;;;;5010033;28;20482;-68
2022/02/08 09:07:02;;;;;;;8.20;1.23;;;;;;;;;;5011621;28;20034;-76
2022/02/08 09:09:31;;;;;;;6.43;1.30;;;;;;;;;;5011809;28;20545;-70
2022/02/08 09:12:13;;;;;;;47.58;3.42;;;;;;;;;;5011582;28;20042;-71
2022/02/08 09:28:41;;;;;;;1.88;0.80;;;;;;;;;;5012701;28;20045;-74
2022/02/08 09:31:01;;;;;;;7.45;1.52;;;;;;;;;;5014126;28;20540;-77
2022/02/08 09:33:28;;;;;;;1.67;0.50;;;;;;;;;;5013384;28;20038;-73
2022/02/08 09:35:57;;;;;;;1.92;0.80;;;;;;;;;;5014027;28;20125;-73
2022/02/08 09:38:29;;;;;;;1.83;0.82;;;;;;;;;;5015162;28;20489;-73
2022/02/08 09:41:01;;;;;;;2.95;0.90;;;;;;;;;;5014355;28;20034;-75
2022/02/08 09:43:33;;;;;;;3.30;1.42;;;;;;;;;;5013620;28;20046;-73
2022/02/08 09:46:05;;;;;;;2.38;0.93;;;;;;;;;;5015096;28;20068;-70
2022/02/08 09:51:07;;;;;;;3.72;1.20;;;;;;;;;;5012412;28;20045;-70
2022/02/08 09:53:36;;;;;;;2.67;0.85;;;;;;;;;;5013883;28;20034;-72
2022/02/08 09:56:05;;;;;;;6.88;0.88;;;;;;;;;;5013505;28;20125;-72
2022/02/08 09:58:33;;;;;;;5.07;1.20;;;;;;;;;;5013679;28;20037;-70
2022/02/08 10:01:11;;;;;;;3.33;1.00;;;;;;;;;;5102067;23;21320;-69
2022/02/08 10:03:55;;;;;;;5.00;0.90;;;;;;;;;;5054116;28;20043;-70
2022/02/08 10:06:26;;;;;;;2.17;0.98;;;;;;;;;;5051933;28;20044;-69
2022/02/08 10:08:59;;;;;;;1.83;0.68;;;;;;;;;;5054347;28;20029;-69
2022/02/08 10:11:40;;;;;;;2.83;0.75;;;;;;;;;;5052203;28;20045;-70
2022/02/08 10:14:22;;;;;;;10.23;1.60;;;;;;;;;;5052126;28;20033;-69
2022/02/08 10:20:37;;;;;;;3.50;0.90;;;;;;;;;;5051827;28;20040;-69
2022/02/08 10:22:48;;;;;;;3.05;1.10;;;;;;;;;;5054055;28;20484;-69
2022/02/08 10:28:29;;;;;;;2.55;0.50;;;;;;;;;;5003574;28;20060;-70
2022/02/08 10:39:06;;;;;;;6.45;1.08;;;;;;;;;;5034274;28;20144;-70
2022/02/08 10:41:38;;;;;;;7.45;1.48;;;;;;;;;;5033607;28;20043;-69
2022/02/08 10:44:10;;;;;;;3.05;0.80;;;;;;;;;;5034178;28;20029;-68
2022/02/08 10:46:38;;;;;;;2.38;0.75;;;;;;;;;;5013718;28;20464;-68
2022/02/08 10:49:13;;;;;;;1.65;0.85;;;;;;;;;;5033581;28;20064;-69
2022/02/08 10:51:51;;;;;;;2.97;1.00;;;;;;;;;;5030853;28;20037;-72
2022/02/08 10:54:30;;;;;;;1.70;0.88;;;;;;;;;;5030644;28;20041;-69
2022/02/08 10:57:08;;;;;;;4.03;0.90;;;;;;;;;;5031301;28;20041;-71
2022/02/08 10:59:42;;;;;;;4.63;1.00;;;;;;;;;;5033835;28;20123;-69
2022/02/08 11:02:24;;;;;;;5.05;0.70;;;;;;;;;;5033636;28;20041;-71
2022/02/08 11:05:04;;;;;;;5.00;1.20;;;;;;;;;;5033243;28;20457;-70
2022/02/08 11:13:11;;;;;;;3.05;1.00;;;;;;;;;;5033108;28;20061;-72
2022/02/08 11:16:08;;;;;;;3.45;1.15;;;;;;;;;;5033693;28;20076;-70
2022/02/08 11:26:38;;;;;;;5.53;1.10;;;;;;;;;;5033422;28;20049;-73
2022/02/08 11:29:12;;;;;;;5.10;1.17;;;;;;;;;;5015973;28;20115;-70
2022/02/08 11:31:46;;;;;;;2.83;1.10;;;;;;;;;;5033956;28;20120;-73
2022/02/08 11:58:43;;;;;;;5.78;1.10;;;;;;;;;;5033146;28;20084;-72
2022/02/08 12:01:24;;;;;;;2.60;0.90;;;;;;;;;;5033135;28;20045;-70
2022/02/08 12:06:54;;;;;;;3.20;1.20;;;;;;;;;;5033220;28;20049;-71
2022/02/08 12:09:27;;;;;;;3.47;0.98;;;;;;;;;;5032527;28;20116;-74
2022/02/08 12:12:15;;;;;;;1.83;1.25;;;;;;;;;;5031478;28;20433;-71
2022/02/08 12:32:58;;;;;;;4.07;0.88;;;;;;;;;;5032579;28;20087;-72
2022/02/08 12:57:33;;;;;;;2.13;0.90;;;;;;;;;;5009913;28;20044;-69
2022/02/08 13:00:25;;;;;;;3.63;0.68;;;;;;;;;;5024529;28;20044;-71
2022/02/08 14:23:06;;;;;;;2.78;0.60;;;;;;;;;;5054080;28;20132;-69
2022/02/08 14:25:50;;;;;;;3.58;0.70;;;;;;;;;;5054205;28;20029;-69
2022/02/08 15:09:32;;;;;;;4.15;0.98;;;;;;;;;;5047357;28;20120;-71
2022/02/08 15:12:16;;;;;;;3.40;0.98;;;;;;;;;;5051084;28;20101;-72
2022/02/08 15:14:53;;;;;;;3.53;1.10;;;;;;;;;;5050512;28;20033;-70
2022/02/08 15:17:25;;;;;;;5.18;1.00;;;;;;;;;;5051029;28;20094;-72
2022/02/08 15:19:54;;;;;;;5.25;1.20;;;;;;;;;;5052808;28;20037;-73
2022/02/08 15:22:23;;;;;;;5.63;1.08;;;;;;;;;;5053810;28;20384;-73
2022/02/08 15:24:51;;;;;;;2.63;1.05;;;;;;;;;;5052201;28;20049;-70
2022/02/08 15:27:22;;;;;;;2.25;1.13;;;;;;;;;;5053329;28;20107;-69
2022/02/08 15:29:54;;;;;;;3.20;1.17;;;;;;;;;;5052164;28;20526;-72
2022/02/08 15:32:21;;;;;;;6.33;1.20;;;;;;;;;;5046624;28;20076;-72
2022/02/08 15:34:49;;;;;;;2.20;1.02;;;;;;;;;;5050650;28;20040;-72
2022/02/08 15:37:16;;;;;;;5.35;0.98;;;;;;;;;;5053489;28;20053;-72
2022/02/08 15:39:44;;;;;;;2.03;1.23;;;;;;;;;;5053271;28;20105;-71
2022/02/08 15:42:12;;;;;;;9.13;1.60;;;;;;;;;;5053243;28;20041;-72
2022/02/08 15:44:45;;;;;;;3.50;1.27;;;;;;;;;;5034960;28;20037;-73
2022/02/08 15:47:13;;;;;;;4.40;0.90;;;;;;;;;;5053286;28;20040;-73
2022/02/08 15:49:53;;;;;;;6.93;1.50;;;;;;;;;;5030473;28;20037;-72
2022/02/08 15:52:42;;;;;;;7.32;2.10;;;;;;;;;;5044949;28;20052;-69
2022/02/08 15:55:17;;;;;;;7.20;1.33;;;;;;;;;;5042760;28;20099;-68
2022/02/08 16:00:47;;;;;;;11.52;1.42;;;;;;;;;;5042506;28;20369;-72
2022/02/08 16:08:31;;;;;;;9.68;1.25;;;;;;;;;;5045289;28;20496;-72
2022/02/08 16:18:58;;;;;;;7.90;4.60;;;;;;;;;;5042552;28;20095;-71
2022/02/08 16:22:11;;;;;;;44.70;21.63;;;;;;;;;;5040789;28;20504;-71
2022/02/08 16:47:00;;;;;;;4.63;0.82;;;;;;;;;;5050055;28;20045;-72
2022/02/08 16:56:40;;;;;;;3.30;1.30;;;;;;;;;;5040759;28;20033;-68
2022/02/08 16:59:08;;;;;;;9.73;2.05;;;;;;;;;;5027050;28;20155;-71
2022/02/08 17:01:37;;;;;;;2.63;1.17;;;;;;;;;;5051001;28;20049;-71
2022/02/08 17:04:08;;;;;;;6.00;1.73;;;;;;;;;;5051244;28;20449;-71
2022/02/08 17:06:36;;;;;;;5.28;2.58;;;;;;;;;;5051452;28;20041;-69
2022/02/08 17:09:11;;;;;;;6.75;1.50;;;;;;;;;;5050758;28;20045;-72
2022/02/08 17:11:51;;;;;;;3.75;1.45;;;;;;;;;;5051646;28;20095;-70
2022/02/08 17:49:40;;;;;;;1.45;0.80;;;;;;;;;;5053956;28;20033;-72
2022/02/08 17:52:07;;;;;;;3.95;1.13;;;;;;;;;;5053722;28;20045;-71
2022/02/08 17:54:37;;;;;;;5.38;0.90;;;;;;;;;;5036806;28;20041;-68
2022/02/08 17:57:05;;;;;;;3.78;1.50;;;;;;;;;;5051611;28;20139;-72
2022/02/08 17:59:35;;;;;;;4.95;2.00;;;;;;;;;;5054080;28;20033;-72
2022/02/08 18:02:10;;;;;;;3.83;2.28;;;;;;;;;;5052991;28;20057;-71
2022/02/08 18:04:38;;;;;;;4.70;2.25;;;;;;;;;;5036323;28;20041;-72
2022/02/08 18:07:05;;;;;;;3.08;1.83;;;;;;;;;;5036806;28;20124;-72
2022/02/08 18:09:33;;;;;;;9.25;2.22;;;;;;;;;;5037186;28;20048;-73
2022/02/08 18:12:01;;;;;;;4.57;1.73;;;;;;;;;;5054231;28;20041;-72
2022/02/08 18:14:30;;;;;;;5.63;3.40;;;;;;;;;;5054939;28;20488;-72
2022/02/08 18:17:15;;;;;;;3.67;1.25;;;;;;;;;;5054560;28;20037;-72
2022/02/08 18:19:56;;;;;;;2.60;1.48;;;;;;;;;;5053895;28;20037;-71
2022/02/08 18:25:42;;;;;;;3.35;1.77;;;;;;;;;;5054195;28;20041;-72
2022/02/08 19:03:16;;;;;;;1.60;1.10;;;;;;;;;;5051690;28;20079;-71
2022/02/08 19:16:28;;;;;;;5.95;1.80;;;;;;;;;;5053704;28;20036;-70
2022/02/08 19:19:05;;;;;;;4.47;1.88;;;;;;;;;;5035476;28;20041;-72
2022/02/08 19:21:41;;;;;;;3.67;1.70;;;;;;;;;;5053635;28;20037;-72
2022/02/08 19:24:09;;;;;;;2.75;1.40;;;;;;;;;;5035622;28;20049;-71
2022/02/08 19:26:36;;;;;;;4.88;2.20;;;;;;;;;;5053919;28;20124;-68
2022/02/08 19:29:04;;;;;;;5.07;1.75;;;;;;;;;;5035141;28;20055;-70
2022/02/08 19:31:31;;;;;;;6.47;2.25;;;;;;;;;;5035197;28;20492;-72
2022/02/08 19:34:01;;;;;;;6.07;2.45;;;;;;;;;;5048814;28;20107;-72
2022/02/08 19:36:29;;;;;;;4.18;2.00;;;;;;;;;;5050309;28;20037;-72
2022/02/08 19:39:02;;;;;;;7.05;2.25;;;;;;;;;;5052372;28;20037;-72
2022/02/08 19:41:31;;;;;;;4.80;2.65;;;;;;;;;;5029557;28;20048;-71
2022/02/08 19:43:59;;;;;;;6.35;2.85;;;;;;;;;;5052756;28;20376;-72
2022/02/08 19:46:27;;;;;;;4.10;2.30;;;;;;;;;;5051176;28;20124;-72
2022/02/08 19:48:55;;;;;;;4.38;2.28;;;;;;;;;;5052561;28;20041;-70
2022/02/08 19:51:23;;;;;;;11.23;2.97;;;;;;;;;;5052296;28;20103;-72
2022/02/08 19:53:52;;;;;;;6.90;3.38;;;;;;;;;;5017200;28;20068;-70
2022/02/08 19:56:27;;;;;;;6.95;2.50;;;;;;;;;;5045346;28;20051;-72
2022/02/08 19:58:57;;;;;;;5.30;2.47;;;;;;;;;;5051736;28;20059;-72
2022/02/08 20:01:36;;;;;;;9.43;3.00;;;;;;;;;;5051699;28;20361;-69
2022/02/08 20:04:17;;;;;;;6.18;2.88;;;;;;;;;;5051493;28;20116;-69
2022/02/08 20:06:46;;;;;;;9.93;3.88;;;;;;;;;;5052091;28;20051;-72
2022/02/08 20:09:14;;;;;;;6.32;3.30;;;;;;;;;;5052121;28;20041;-72
2022/02/08 20:11:43;;;;;;;8.45;3.45;;;;;;;;;;5034031;28;20041;-73
2022/02/08 20:14:12;;;;;;;10.27;3.38;;;;;;;;;;5051804;28;20101;-69
2022/02/08 20:16:40;;;;;;;12.02;3.40;;;;;;;;;;5051719;28;20052;-72
2022/02/08 20:19:09;;;;;;;5.60;2.80;;;;;;;;;;5034304;28;20124;-72
2022/02/08 20:21:37;;;;;;;11.15;3.47;;;;;;;;;;5052185;28;20044;-72
2022/02/08 20:24:07;;;;;;;6.72;3.20;;;;;;;;;;5038304;28;20037;-72
2022/02/08 20:29:05;;;;;;;5.85;2.38;;;;;;;;;;5049264;28;20040;-71
2022/02/08 20:31:33;;;;;;;7.30;2.45;;;;;;;;;;5050536;28;20029;-73
2022/02/08 20:34:00;;;;;;;7.13;2.92;;;;;;;;;;5049988;28;20055;-71
2022/02/08 20:36:28;;;;;;;3.53;2.50;;;;;;;;;;5016814;28;20068;-72
2022/02/08 20:38:55;;;;;;;7.38;2.60;;;;;;;;;;5043638;28;20036;-69
2022/02/08 20:41:23;;;;;;;10.48;3.47;;;;;;;;;;5048336;28;20102;-73
2022/02/08 20:43:50;;;;;;;8.88;3.10;;;;;;;;;;5045288;28;20041;-72
2022/02/08 20:46:18;;;;;;;12.00;3.90;;;;;;;;;;5050805;28;20476;-73
2022/02/08 20:48:47;;;;;;;9.57;4.50;;;;;;;;;;5049102;28;20037;-70
2022/02/08 20:51:15;;;;;;;11.05;4.53;;;;;;;;;;5051495;28;20041;-71
2022/02/08 20:53:54;;;;;;;10.15;4.00;;;;;;;;;;5050932;28;20429;-70
2022/02/08 21:01:28;;;;;;;6.45;3.33;;;;;;;;;;5048326;28;20064;-69
2022/02/08 21:04:01;;;;;;;7.05;3.25;;;;;;;;;;5040690;28;20150;-73
2022/02/08 21:06:29;;;;;;;6.22;3.28;;;;;;;;;;5048380;28;20373;-72
2022/02/08 21:08:59;;;;;;;7.63;3.08;;;;;;;;;;5031975;28;20524;-70
2022/02/08 21:11:34;;;;;;;7.03;3.08;;;;;;;;;;5026688;28;20428;-72
2022/02/08 21:14:07;;;;;;;9.68;3.08;;;;;;;;;;5050064;28;20037;-71
2022/02/08 21:16:40;;;;;;;7.68;2.75;;;;;;;;;;5048034;28;20524;-70
2022/02/08 21:19:09;;;;;;;9.05;3.20;;;;;;;;;;5051433;28;20071;-74
2022/02/08 21:21:37;;;;;;;6.78;3.28;;;;;;;;;;5054448;28;20040;-69
2022/02/08 21:24:04;;;;;;;6.07;2.60;;;;;;;;;;5051881;28;20047;-72
2022/02/08 21:26:39;;;;;;;7.78;3.47;;;;;;;;;;5045846;28;20147;-71
2022/02/08 21:29:24;;;;;;;8.75;3.42;;;;;;;;;;5037025;28;20036;-69
2022/02/08 21:51:22;;;;;;;9.35;3.15;;;;;;;;;;5036117;28;20388;-69
2022/02/08 21:53:52;;;;;;;6.53;3.00;;;;;;;;;;5054244;28;20396;-72
2022/02/08 21:56:20;;;;;;;6.55;2.97;;;;;;;;;;5051769;28;20033;-73
2022/02/08 21:58:47;;;;;;;7.68;2.83;;;;;;;;;;5054206;28;20033;-73
2022/02/08 22:01:15;;;;;;;4.45;3.20;;;;;;;;;;5134398;23;20368;-71
2022/02/08 22:03:43;;;;;;;7.80;3.10;;;;;;;;;;5073652;28;20050;-71
2022/02/08 22:06:10;;;;;;;7.40;3.22;;;;;;;;;;5073500;28;20037;-68
2022/02/08 22:08:41;;;;;;;5.55;2.38;;;;;;;;;;5074645;28;20582;-69
2022/02/08 22:22:06;;;;;;;4.18;1.88;;;;;;;;;;5054672;28;20037;-73
2022/02/08 22:27:38;;;;;;;4.53;2.13;;;;;;;;;;5044883;28;20403;-73
2022/02/08 22:32:36;;;;;;;5.22;2.60;;;;;;;;;;5054251;28;20037;-70
2022/02/08 22:35:19;;;;;;;5.57;2.28;;;;;;;;;;5054097;28;20127;-68
2022/02/08 22:38:02;;;;;;;7.47;2.15;;;;;;;;;;5054226;28;20036;-68
2022/02/08 22:40:33;;;;;;;5.82;2.40;;;;;;;;;;5053839;28;20140;-68
2022/02/08 22:43:41;;;;;;;7.88;2.58;;;;;;;;;;5054069;28;20388;-71
2022/02/08 22:45:54;;;;;;;5.90;2.42;;;;;;;;;;5052047;28;20057;-73
2022/02/08 22:48:23;;;;;;;6.68;2.70;;;;;;;;;;5071166;28;20044;-70
2022/02/08 22:50:50;;;;;;;7.32;2.70;;;;;;;;;;5073315;28;20044;-71
2022/02/08 22:53:17;;;;;;;6.78;3.42;;;;;;;;;;5074070;28;20051;-69
2022/02/08 22:55:46;;;;;;;8.98;3.20;;;;;;;;;;5056501;28;20048;-71
2022/02/08 22:58:13;;;;;;;6.88;3.00;;;;;;;;;;5074334;28;20041;-69
2022/02/08 23:00:42;;;;;;;8.88;2.83;;;;;;;;;;5045945;28;20064;-71
2022/02/08 23:03:10;;;;;;;6.32;3.10;;;;;;;;;;5073911;28;20056;-71
2022/02/08 23:05:38;;;;;;;6.80;2.97;;;;;;;;;;5072014;28;20040;-71
2022/02/08 23:08:06;;;;;;;5.93;2.90;;;;;;;;;;5036381;28;20049;-73
2022/02/08 23:10:48;;;;;;;5.40;2.83;;;;;;;;;;5053704;28;20056;-72
2022/02/08 23:13:18;;;;;;;7.85;2.95;;;;;;;;;;5053800;28;20057;-71
2022/02/08 23:37:56;;;;;;;5.35;2.70;;;;;;;;;;5053677;28;20064;-70
2022/02/08 23:40:23;;;;;;;7.78;2.80;;;;;;;;;;5053471;28;20037;-69
2022/02/08 23:42:54;;;;;;;3.65;2.70;;;;;;;;;;5052428;28;20037;-71
2022/02/08 23:45:21;;;;;;;7.70;2.80;;;;;;;;;;5053245;28;20048;-71
2022/02/08 23:47:58;;;;;;;6.05;2.88;;;;;;;;;;5053002;28;20045;-71
2022/02/08 23:50:40;;;;;;;11.70;3.22;;;;;;;;;;5053101;28;20052;-71
2022/02/08 23:53:45;;;;;;;5.40;2.72;;;;;;;;;;5052846;28;20480;-71
2022/02/08 23:56:14;;;;;;;5.57;2.47;;;;;;;;;;5049667;28;20053;-71
2022/02/08 23:58:44;;;;;;;5.20;2.42;;;;;;;;;;5053428;28;20464;-71
